Time;durP1;ratioP1;P1;durP2;ratioP2;P2;SDS_P1;SDS_P2;PMS_P1;PMS_P2;Temp;Humidity;BMP_temperature;BMP_pressure;BME280_temperature;BME280_humidity;BME280_pressure;Samples;Min_cycle;Max_cycle;Signal;HPM_P1;HPM_P2
2023/03/13 00:01:16;;;;;;;5.07;2.03;;;;;;;6.46;100.00;93529.25;5030523;28;21934;-65
2023/03/13 00:03:43;;;;;;;5.10;1.70;;;;;;;6.47;100.00;93523.41;5029483;28;20081;-62
2023/03/13 00:06:10;;;;;;;4.88;1.40;;;;;;;6.54;100.00;93526.09;5030992;28;20053;-66
2023/03/13 00:08:37;;;;;;;6.30;1.98;;;;;;;6.51;100.00;93513.25;5031532;28;20300;-67
2023/03/13 00:11:06;;;;;;;4.07;1.50;;;;;;;6.53;100.00;93512.88;5030773;28;20047;-66
2023/03/13 00:13:33;;;;;;;6.60;1.73;;;;;;;6.58;100.00;93510.50;5030645;28;20037;-67
2023/03/13 00:16:02;;;;;;;4.97;1.77;;;;;;;6.65;100.00;93506.16;5030673;28;20053;-66
2023/03/13 00:18:29;;;;;;;5.75;1.40;;;;;;;6.63;100.00;93492.94;5031171;28;20064;-65
2023/03/13 00:21:05;;;;;;;4.72;1.50;;;;;;;6.73;100.00;93499.47;5030558;28;20057;-66
2023/03/13 00:23:33;;;;;;;5.37;1.70;;;;;;;6.88;100.00;93494.69;5031129;28;20405;-65
2023/03/13 00:26:03;;;;;;;4.78;1.50;;;;;;;6.83;100.00;93490.44;5029224;28;20050;-65
2023/03/13 00:28:33;;;;;;;4.55;1.38;;;;;;;6.89;100.00;93488.06;5030803;28;20047;-65
2023/03/13 00:31:17;;;;;;;6.38;1.50;;;;;;;6.87;100.00;93493.16;5030457;28;20058;-66
2023/03/13 00:33:47;;;;;;;4.35;1.50;;;;;;;6.82;100.00;93499.03;5030307;28;20488;-64
2023/03/13 00:36:20;;;;;;;6.20;1.70;;;;;;;6.86;100.00;93494.31;5030786;28;20045;-65
2023/03/13 00:38:47;;;;;;;5.72;1.73;;;;;;;6.78;100.00;93497.09;5030295;28;20510;-65
2023/03/13 00:41:19;;;;;;;5.95;1.60;;;;;;;6.75;100.00;93502.59;5030547;28;20175;-67
2023/03/13 00:43:47;;;;;;;6.47;1.58;;;;;;;6.78;100.00;93501.75;5025741;28;20057;-66
2023/03/13 00:46:15;;;;;;;4.13;1.60;;;;;;;6.83;100.00;93497.84;5010481;28;20046;-65
2023/03/13 00:48:42;;;;;;;8.00;2.83;;;;;;;6.82;100.00;93499.78;5022421;28;20045;-67
2023/03/13 00:51:10;;;;;;;5.55;1.83;;;;;;;6.88;100.00;93492.75;5029600;28;20759;-65
2023/03/13 00:53:36;;;;;;;5.45;1.80;;;;;;;6.89;100.00;93491.56;5030599;28;20107;-65
2023/03/13 00:56:06;;;;;;;6.13;1.70;;;;;;;7.03;100.00;93489.91;5029991;28;20053;-65
2023/03/13 00:58:36;;;;;;;3.72;1.38;;;;;;;7.05;100.00;93484.81;5030343;28;20049;-67
2023/03/13 01:01:15;;;;;;;3.13;1.17;;;;;;;7.01;100.00;93482.13;5029911;28;20049;-67
2023/03/13 01:03:45;;;;;;;5.28;1.38;;;;;;;7.02;100.00;93493.78;5030230;28;20079;-66
2023/03/13 01:06:15;;;;;;;4.43;1.80;;;;;;;7.02;100.00;93491.06;5027756;28;20618;-65
2023/03/13 01:08:42;;;;;;;6.22;1.60;;;;;;;7.06;100.00;93489.06;5030164;28;20417;-65
2023/03/13 01:11:11;;;;;;;4.47;1.48;;;;;;;7.03;100.00;93493.41;5029058;28;20640;-67
2023/03/13 01:13:39;;;;;;;5.23;1.33;;;;;;;7.11;100.00;93496.84;5029100;28;20056;-65
2023/03/13 01:16:05;;;;;;;6.13;1.42;;;;;;;7.05;100.00;93487.53;5029193;28;20045;-64
2023/03/13 01:18:34;;;;;;;3.90;1.55;;;;;;;7.01;100.00;93493.03;5029981;28;20042;-66
2023/03/13 01:21:01;;;;;;;4.43;1.67;;;;;;;7.01;100.00;93493.03;5028175;28;20689;-66
2023/03/13 01:23:28;;;;;;;4.15;1.55;;;;;;;7.05;100.00;93487.53;5029861;28;20087;-66
2023/03/13 01:25:55;;;;;;;7.47;1.60;;;;;;;6.97;100.00;93484.88;5027064;28;20059;-65
2023/03/13 01:28:24;;;;;;;3.97;1.48;;;;;;;7.03;100.00;93476.25;5042676;28;20041;-66
2023/03/13 01:30:50;;;;;;;5.68;1.63;;;;;;;7.02;100.00;93480.16;5029036;28;20048;-65
2023/03/13 01:33:18;;;;;;;6.13;1.40;;;;;;;6.97;100.00;93484.09;5029473;28;20043;-64
2023/03/13 01:35:44;;;;;;;5.28;1.60;;;;;;;6.99;100.00;93476.28;5029288;28;20049;-65
2023/03/13 01:38:11;;;;;;;5.97;1.50;;;;;;;6.96;100.00;93472.41;5029421;28;20154;-65
2023/03/13 01:40:43;;;;;;;4.43;1.30;;;;;;;6.95;100.00;93465.41;5028268;28;20045;-64
2023/03/13 01:43:20;;;;;;;5.78;1.70;;;;;;;6.94;100.00;93463.06;5028454;28;20414;-65
2023/03/13 01:46:05;;;;;;;11.68;5.57;;;;;;;6.99;100.00;93463.41;5010268;28;20107;-65
2023/03/13 01:48:57;;;;;;;4.95;2.05;;;;;;;6.96;100.00;93457.97;5017753;28;20402;-68
2023/03/13 01:51:33;;;;;;;3.43;1.80;;;;;;;6.94;100.00;93466.59;5028660;28;20449;-65
2023/03/13 01:54:03;;;;;;;5.10;1.95;;;;;;;6.94;100.00;93458.41;5028669;28;20052;-67
2023/03/13 01:56:41;;;;;;;4.72;1.73;;;;;;;6.94;100.00;93452.16;5029200;28;20421;-63
2023/03/13 01:59:13;;;;;;;3.90;1.52;;;;;;;6.90;100.00;93448.69;5028164;28;20091;-64
2023/03/13 02:01:41;;;;;;;5.00;1.80;;;;;;;6.90;100.00;93445.97;5029003;28;20041;-66
2023/03/13 02:04:08;;;;;;;4.90;1.60;;;;;;;6.86;100.00;93448.75;5028173;28;20908;-65
2023/03/13 02:06:40;;;;;;;5.55;1.40;;;;;;;6.89;100.00;93450.66;5029000;28;20064;-64
2023/03/13 02:09:12;;;;;;;5.60;1.90;;;;;;;6.93;100.00;93451.38;5028688;28;20041;-65
2023/03/13 02:11:58;;;;;;;5.95;1.60;;;;;;;6.94;100.00;93450.22;5028895;28;20479;-63
2023/03/13 02:14:27;;;;;;;5.20;1.60;;;;;;;6.90;100.00;93449.47;5028070;28;20760;-63
2023/03/13 02:16:55;;;;;;;5.97;1.67;;;;;;;6.89;100.00;93449.88;5028532;28;20401;-63
2023/03/13 02:19:34;;;;;;;5.05;1.63;;;;;;;6.87;100.00;93444.06;5031026;28;20049;-64
2023/03/13 02:22:13;;;;;;;5.57;1.52;;;;;;;6.95;100.00;93437.34;5028242;28;20068;-63
2023/03/13 02:24:53;;;;;;;5.15;1.60;;;;;;;6.95;100.00;93423.72;5028899;28;20057;-63
2023/03/13 02:27:20;;;;;;;5.32;2.00;;;;;;;6.90;100.00;93422.19;5033171;28;20701;-65
2023/03/13 02:29:48;;;;;;;9.30;4.50;;;;;;;6.92;100.00;93417.13;5034662;28;20053;-64
2023/03/13 02:32:15;;;;;;;6.13;2.33;;;;;;;6.93;100.00;93426.84;5042110;28;20056;-64
2023/03/13 02:34:44;;;;;;;4.93;1.90;;;;;;;6.88;100.00;93418.31;5028609;28;20038;-64
2023/03/13 02:37:13;;;;;;;6.40;1.70;;;;;;;6.91;100.00;93412.81;5030313;28;20274;-63
2023/03/13 02:39:47;;;;;;;6.05;1.73;;;;;;;6.86;100.00;93412.47;5032967;28;20068;-64
2023/03/13 02:42:16;;;;;;;4.27;1.77;;;;;;;6.82;100.00;93415.25;5019231;28;20394;-63
2023/03/13 02:44:45;;;;;;;4.32;1.90;;;;;;;6.82;100.00;93404.34;5032097;28;20056;-63
2023/03/13 02:47:21;;;;;;;4.53;1.73;;;;;;;6.84;100.00;93402.00;5032790;28;20048;-63
2023/03/13 02:49:49;;;;;;;3.83;1.48;;;;;;;6.85;100.00;93397.31;5031409;28;20055;-66
2023/03/13 02:52:30;;;;;;;5.55;1.80;;;;;;;6.84;100.00;93395.75;5021917;28;20088;-64
2023/03/13 02:55:01;;;;;;;5.23;1.60;;;;;;;6.82;100.00;93392.66;5032222;28;20056;-64
2023/03/13 02:57:28;;;;;;;4.43;1.60;;;;;;;6.72;100.00;93384.19;5032761;28;20045;-63
2023/03/13 02:59:54;;;;;;;5.57;1.90;;;;;;;6.69;100.00;93401.34;5032104;28;20071;-63
2023/03/13 03:02:21;;;;;;;6.20;1.75;;;;;;;6.63;100.00;93389.31;5031179;28;20102;-64
2023/03/13 03:04:48;;;;;;;8.50;2.13;;;;;;;6.65;100.00;93384.25;5031598;28;20041;-63
2023/03/13 03:07:15;;;;;;;4.10;1.80;;;;;;;6.63;100.00;93381.13;5032195;28;20045;-65
2023/03/13 03:09:42;;;;;;;4.68;1.80;;;;;;;6.70;100.00;93377.56;5032248;28;20037;-64
2023/03/13 03:12:09;;;;;;;5.25;2.00;;;;;;;6.65;100.00;93381.50;5041985;28;20493;-63
2023/03/13 03:14:35;;;;;;;7.40;1.90;;;;;;;6.62;100.00;93378.81;5025722;28;20056;-64
2023/03/13 03:17:02;;;;;;;6.10;1.80;;;;;;;6.56;100.00;93379.25;5011788;28;20050;-64
2023/03/13 03:19:29;;;;;;;5.50;1.90;;;;;;;6.58;100.00;93381.59;5039176;28;20425;-65
2023/03/13 03:21:55;;;;;;;5.10;2.05;;;;;;;6.51;100.00;93370.72;5027395;28;20110;-66
2023/03/13 03:24:22;;;;;;;6.32;1.80;;;;;;;6.48;100.00;93366.06;5031852;28;20049;-64
2023/03/13 03:26:49;;;;;;;5.20;1.88;;;;;;;6.49;100.00;93367.63;5031378;28;20103;-63
2023/03/13 03:29:15;;;;;;;6.53;1.80;;;;;;;6.55;100.00;93353.16;5030336;28;20046;-63
2023/03/13 03:31:42;;;;;;;4.93;1.80;;;;;;;6.56;100.00;93359.38;5045013;28;20063;-65
2023/03/13 03:34:09;;;;;;;4.78;1.80;;;;;;;6.49;100.00;93365.69;5030793;28;20892;-64
2023/03/13 03:36:36;;;;;;;4.70;2.03;;;;;;;6.46;100.00;93368.44;5031834;28;20057;-65
2023/03/13 03:39:04;;;;;;;4.18;1.75;;;;;;;6.55;100.00;93361.34;5031471;28;20053;-63
2023/03/13 03:41:31;;;;;;;7.45;1.80;;;;;;;6.52;100.00;93364.09;5031639;28;20045;-63
2023/03/13 03:43:57;;;;;;;4.33;1.90;;;;;;;6.56;100.00;93367.56;5030153;28;20079;-64
2023/03/13 03:46:24;;;;;;;5.38;1.90;;;;;;;6.47;100.00;93370.75;5031385;28;20042;-65
2023/03/13 03:48:50;;;;;;;4.22;1.70;;;;;;;6.54;100.00;93365.25;5028826;28;20094;-65
2023/03/13 03:51:17;;;;;;;4.75;1.80;;;;;;;6.51;100.00;93360.59;5031653;28;20045;-64
2023/03/13 03:53:44;;;;;;;8.38;1.83;;;;;;;6.53;100.00;93349.31;5031074;28;20038;-61
2023/03/13 03:56:11;;;;;;;3.90;1.60;;;;;;;6.56;100.00;93345.75;5031354;28;20046;-65
2023/03/13 03:58:37;;;;;;;4.38;1.60;;;;;;;6.60;100.00;93338.34;5031052;28;20041;-64
2023/03/13 04:01:04;;;;;;;5.40;1.85;;;;;;;6.69;100.00;93343.31;5031069;28;20055;-64
2023/03/13 04:03:31;;;;;;;5.50;1.52;;;;;;;6.84;100.00;93343.94;5031248;28;20441;-65
2023/03/13 04:05:58;;;;;;;6.25;1.90;;;;;;;6.85;100.00;93340.03;5030821;28;20453;-64
2023/03/13 04:08:25;;;;;;;5.63;1.90;;;;;;;6.84;100.00;93346.66;5031168;28;20053;-64
2023/03/13 04:10:52;;;;;;;4.53;1.70;;;;;;;6.88;100.00;93358.31;5030820;28;20063;-64
2023/03/13 04:13:19;;;;;;;5.65;1.90;;;;;;;6.88;100.00;93345.47;5029836;28;20049;-65
2023/03/13 04:15:46;;;;;;;4.55;1.73;;;;;;;6.87;100.00;93345.88;5011839;28;20096;-65
2023/03/13 04:18:12;;;;;;;4.20;1.60;;;;;;;6.94;100.00;93338.38;5019987;28;20482;-64
2023/03/13 04:20:39;;;;;;;5.20;1.70;;;;;;;7.07;100.00;93335.13;5030976;28;20079;-64
2023/03/13 04:23:06;;;;;;;4.05;1.50;;;;;;;7.15;100.00;93331.13;5030344;28;20055;-64
2023/03/13 04:25:32;;;;;;;3.60;1.90;;;;;;;7.19;100.00;93331.84;5029502;28;20445;-66
2023/03/13 04:27:59;;;;;;;3.90;1.50;;;;;;;7.25;100.00;93326.72;5029988;28;20650;-65
2023/03/13 04:30:26;;;;;;;4.93;1.70;;;;;;;7.30;100.00;93324.31;5043107;28;20074;-65
2023/03/13 04:32:52;;;;;;;4.10;1.90;;;;;;;7.27;100.00;93310.72;5030602;28;20053;-63
2023/03/13 04:35:19;;;;;;;4.93;1.30;;;;;;;7.38;100.00;93322.25;5030482;28;20049;-64
2023/03/13 04:37:46;;;;;;;3.05;1.50;;;;;;;7.43;100.00;93310.91;5030070;28;20488;-66
2023/03/13 04:40:13;;;;;;;3.08;1.40;;;;;;;7.54;100.00;93318.94;5030581;28;20045;-64
2023/03/13 04:42:40;;;;;;;4.18;1.50;;;;;;;7.63;100.00;93299.34;5043677;28;20041;-67
2023/03/13 04:45:10;;;;;;;3.50;1.30;;;;;;;7.64;100.00;93309.06;5030109;28;20041;-66
2023/03/13 04:47:37;;;;;;;3.03;1.20;;;;;;;7.60;100.00;93312.59;5030264;28;20094;-66
2023/03/13 04:50:04;;;;;;;3.63;1.23;;;;;;;7.73;100.00;93317.53;5028330;28;20045;-64
2023/03/13 04:52:31;;;;;;;3.28;1.50;;;;;;;7.80;100.00;93320.91;5030330;28;20487;-64
2023/03/13 04:54:58;;;;;;;3.22;1.50;;;;;;;7.92;100.00;93316.84;5028405;28;20052;-64
2023/03/13 04:57:24;;;;;;;3.43;1.07;;;;;;;8.02;100.00;93314.38;5029115;28;20045;-67
2023/03/13 04:59:51;;;;;;;2.20;1.00;;;;;;;8.33;100.00;93320.50;5029299;28;20042;-65
2023/03/13 05:02:18;;;;;;;4.15;1.50;;;;;;;8.38;100.00;93306.38;5030320;28;20045;-65
2023/03/13 05:04:44;;;;;;;2.65;0.90;;;;;;;8.64;100.00;93306.75;5029719;28;20052;-62
2023/03/13 05:07:11;;;;;;;8.98;3.05;;;;;;;8.55;100.00;93304.53;5030021;28;20041;-64
2023/03/13 05:09:38;;;;;;;17.87;7.40;;;;;;;8.78;100.00;93320.16;5030082;28;20418;-65
2023/03/13 05:12:05;;;;;;;55.40;27.05;;;;;;;8.86;100.00;93313.38;5029223;28;20543;-65
2023/03/13 05:14:31;;;;;;;13.60;6.00;;;;;;;8.88;100.00;93313.72;5019478;28;20042;-65
2023/03/13 05:16:58;;;;;;;4.35;1.80;;;;;;;8.86;100.00;93310.63;5008384;28;20054;-66
2023/03/13 05:19:25;;;;;;;2.67;1.00;;;;;;;8.95;100.00;93308.13;5027374;28;20055;-64
2023/03/13 05:21:51;;;;;;;3.20;1.40;;;;;;;8.99;100.00;93314.31;5029193;28;20041;-64
2023/03/13 05:24:18;;;;;;;3.08;1.10;;;;;;;8.98;100.00;93304.53;5029592;28;20629;-66
2023/03/13 05:26:45;;;;;;;3.05;1.27;;;;;;;8.98;100.00;93295.56;5029318;28;20724;-65
2023/03/13 05:29:11;;;;;;;2.00;1.10;;;;;;;8.90;100.00;93303.13;5029233;28;20053;-63
2023/03/13 05:31:38;;;;;;;4.63;2.08;;;;;;;8.91;100.00;93315.59;5028354;28;20037;-64
2023/03/13 05:34:05;;;;;;;4.03;2.13;;;;;;;8.99;100.00;93303.34;5040509;28;20650;-65
2023/03/13 05:36:32;;;;;;;6.00;4.45;;;;;;;9.05;100.00;93302.84;5029417;28;20292;-65
2023/03/13 05:38:58;;;;;;;2.03;0.85;;;;;;;9.08;100.00;93280.13;5028998;28;20107;-65
2023/03/13 05:41:25;;;;;;;2.72;1.20;;;;;;;9.15;100.00;93299.91;5029455;28;20170;-65
2023/03/13 05:43:52;;;;;;;2.55;1.15;;;;;;;9.19;100.00;93303.38;5029059;28;20436;-67
2023/03/13 05:46:18;;;;;;;2.40;1.10;;;;;;;9.25;100.00;93298.16;5028986;28;20041;-65
2023/03/13 05:48:45;;;;;;;2.25;0.82;;;;;;;9.25;100.00;93311.84;5028705;28;20041;-67
2023/03/13 05:51:12;;;;;;;1.73;0.70;;;;;;;9.33;100.00;93315.97;5029149;28;20041;-64
2023/03/13 05:53:39;;;;;;;3.13;0.98;;;;;;;9.39;100.00;93308.81;5029278;28;20041;-66
2023/03/13 05:56:06;;;;;;;2.25;0.82;;;;;;;9.42;100.00;93318.16;5028756;28;20041;-65
2023/03/13 05:58:32;;;;;;;2.40;1.20;;;;;;;9.47;100.00;93314.16;5042206;28;20071;-65
2023/03/13 06:01:11;;;;;;;1.98;0.88;;;;;;;9.48;100.00;93313.72;5027233;28;20057;-66
2023/03/13 06:03:38;;;;;;;3.53;1.00;;;;;;;9.47;100.00;93305.94;5028894;28;20051;-65
2023/03/13 06:06:05;;;;;;;2.58;1.10;;;;;;;9.50;100.00;93305.84;5028665;28;20041;-66
2023/03/13 06:08:32;;;;;;;2.53;0.90;;;;;;;9.54;100.00;93305.78;5027579;28;20079;-66
2023/03/13 06:11:00;;;;;;;2.20;1.20;;;;;;;9.60;100.00;93309.56;5028090;28;20490;-65
2023/03/13 06:13:28;;;;;;;3.22;1.13;;;;;;;9.62;100.00;93303.66;5028744;28;20483;-64
2023/03/13 06:15:56;;;;;;;2.83;1.30;;;;;;;9.59;100.00;93302.53;5028364;28;20045;-65
2023/03/13 06:18:24;;;;;;;3.05;1.50;;;;;;;9.60;100.00;93302.13;5028438;28;20053;-65
2023/03/13 06:20:59;;;;;;;2.50;1.15;;;;;;;9.58;100.00;93295.53;5028451;28;20046;-66
2023/03/13 06:23:26;;;;;;;3.80;1.70;;;;;;;9.56;100.00;93285.00;5028854;28;20041;-65
2023/03/13 06:25:53;;;;;;;2.58;0.90;;;;;;;9.54;100.00;93287.38;5027035;28;20344;-65
2023/03/13 06:28:20;;;;;;;2.70;1.05;;;;;;;9.51;100.00;93296.44;5028615;28;20386;-65
2023/03/13 06:30:47;;;;;;;2.08;0.82;;;;;;;9.55;100.00;93299.09;5027697;28;20071;-63
2023/03/13 06:33:13;;;;;;;2.10;1.17;;;;;;;9.61;100.00;93308.38;5028624;28;20065;-64
2023/03/13 06:35:41;;;;;;;2.70;1.20;;;;;;;9.62;100.00;93295.44;5028148;28;20033;-63
2023/03/13 06:38:21;;;;;;;2.78;1.20;;;;;;;9.71;100.00;93301.88;5027655;28;20910;-64
2023/03/13 06:40:48;;;;;;;4.20;1.60;;;;;;;9.67;100.00;93300.41;5027968;28;20049;-64
2023/03/13 06:43:15;;;;;;;3.83;2.00;;;;;;;9.82;100.00;93311.81;5028414;28;20413;-63
2023/03/13 06:45:41;;;;;;;7.50;3.60;;;;;;;9.79;100.00;93314.22;5028424;28;20486;-64
2023/03/13 06:48:08;;;;;;;4.43;2.27;;;;;;;9.83;100.00;93319.63;5027532;28;20762;-64
2023/03/13 06:50:39;;;;;;;2.20;0.95;;;;;;;9.84;100.00;93314.91;5028238;28;20083;-64
2023/03/13 06:53:06;;;;;;;2.80;1.45;;;;;;;9.88;100.00;93308.19;5027878;28;20037;-64
2023/03/13 06:55:32;;;;;;;2.95;1.30;;;;;;;9.82;100.00;93309.88;5028179;28;20037;-64
2023/03/13 06:57:59;;;;;;;2.67;1.05;;;;;;;9.82;100.00;93320.03;5027875;28;20431;-64
2023/03/13 07:00:26;;;;;;;2.87;0.90;;;;;;;9.84;100.00;93302.00;5026827;28;20050;-64
2023/03/13 07:02:52;;;;;;;2.90;1.10;;;;;;;9.96;100.00;93293.09;5027941;28;20083;-64
2023/03/13 07:05:19;;;;;;;2.00;0.80;;;;;;;10.00;100.00;93287.56;5026752;28;20045;-64
2023/03/13 07:07:46;;;;;;;3.65;1.02;;;;;;;10.15;100.00;93291.47;5027907;28;20106;-64
2023/03/13 07:10:13;;;;;;;3.60;1.00;;;;;;;10.40;100.00;93284.66;5028353;28;20042;-65
2023/03/13 07:12:39;;;;;;;2.23;0.90;;;;;;;10.36;100.00;93273.00;5028239;28;20083;-65
2023/03/13 07:15:06;;;;;;;3.42;1.20;;;;;;;10.46;100.00;93268.44;5026588;28;20044;-64
2023/03/13 07:17:33;;;;;;;3.10;0.90;;;;;;;10.55;100.00;93266.63;5028109;28;20051;-64
2023/03/13 07:20:00;;;;;;;1.67;0.80;;;;;;;10.64;100.00;93277.00;5027398;28;20041;-65
2023/03/13 07:22:27;;;;;;;1.75;0.80;;;;;;;10.68;100.00;93283.16;5029190;28;20490;-64
2023/03/13 07:24:54;;;;;;;2.53;1.03;;;;;;;10.61;100.00;93272.38;5031532;28;20391;-64
2023/03/13 07:27:21;;;;;;;2.65;1.00;;;;;;;10.83;100.00;93278.06;5031504;28;20038;-64
2023/03/13 07:29:48;;;;;;;3.88;1.30;;;;;;;11.07;100.00;93278.59;5031185;28;20482;-64
2023/03/13 07:32:15;;;;;;;2.72;0.90;;;;;;;10.97;100.00;93296.16;5030686;28;20406;-64
2023/03/13 07:34:45;;;;;;;2.42;0.95;;;;;;;11.00;100.00;93296.03;5031894;28;20049;-64
2023/03/13 07:37:12;;;;;;;2.20;1.00;;;;;;;11.01;100.00;93302.31;5030854;28;20862;-67
2023/03/13 07:39:39;;;;;;;2.67;1.00;;;;;;;10.81;100.00;93296.94;5021589;28;20049;-65
2023/03/13 07:42:06;;;;;;;2.55;1.00;;;;;;;10.94;100.00;93295.03;5030862;28;20038;-65
2023/03/13 07:44:32;;;;;;;2.10;1.00;;;;;;;10.74;100.00;93306.13;5023168;28;20041;-64
2023/03/13 07:47:00;;;;;;;2.05;0.88;;;;;;;10.78;100.00;93295.84;5011587;28;20552;-64
2023/03/13 07:49:26;;;;;;;2.13;0.97;;;;;;;11.02;100.00;93290.13;5031359;28;20075;-64
2023/03/13 07:51:54;;;;;;;2.38;0.77;;;;;;;10.94;100.00;93283.28;5030825;28;20376;-64
2023/03/13 07:54:21;;;;;;;2.13;1.08;;;;;;;11.26;100.00;93292.63;5031314;28;20069;-65
2023/03/13 07:56:47;;;;;;;2.60;0.90;;;;;;;11.54;100.00;93283.56;5030944;28;20124;-65
2023/03/13 07:59:14;;;;;;;2.45;0.98;;;;;;;11.85;100.00;93283.06;5029695;28;20491;-65
2023/03/13 08:01:41;;;;;;;2.43;0.97;;;;;;;11.89;100.00;93277.47;5030351;28;20038;-65
2023/03/13 08:04:12;;;;;;;2.10;0.90;;;;;;;12.51;100.00;93283.34;5031064;28;20045;-64
2023/03/13 08:06:40;;;;;;;2.17;0.80;;;;;;;12.43;100.00;93279.28;5031173;28;20049;-64
2023/03/13 08:09:08;;;;;;;1.88;0.90;;;;;;;12.42;100.00;93275.00;5030523;28;20486;-65
2023/03/13 08:11:39;;;;;;;2.50;0.98;;;;;;;12.21;100.00;93265.44;5031176;28;20512;-65
2023/03/13 08:14:06;;;;;;;2.30;1.00;;;;;;;12.28;100.00;93279.00;5030758;28;20073;-65
2023/03/13 08:16:33;;;;;;;2.33;1.10;;;;;;;11.91;100.00;93275.81;5043187;28;20110;-65
2023/03/13 08:19:04;;;;;;;3.45;1.00;;;;;;;11.97;100.00;93278.78;5030542;28;20049;-65
2023/03/13 08:21:34;;;;;;;3.15;1.13;;;;;;;11.72;100.00;93283.03;5030863;28;20049;-64
2023/03/13 08:24:04;;;;;;;3.53;1.10;;;;;;;11.52;100.00;93274.22;5030270;28;20363;-65
2023/03/13 08:26:33;;;;;;;1.87;0.90;;;;;;;11.76;100.00;93258.19;5029434;28;20110;-65
2023/03/13 08:29:03;;;;;;;2.10;0.88;;;;;;;12.01;100.00;93248.41;5030117;28;20045;-64
2023/03/13 08:31:43;;;;;;;2.60;1.00;;;;;;;12.16;100.00;93247.53;5030421;28;20049;-64
2023/03/13 08:34:11;;;;;;;2.40;1.10;;;;;;;12.79;100.00;93247.81;5029517;28;20348;-64
2023/03/13 08:36:38;;;;;;;2.30;1.05;;;;;;;12.48;100.00;93259.47;5030935;28;20042;-64
2023/03/13 08:39:10;;;;;;;2.87;1.00;;;;;;;12.46;100.00;93248.16;5030088;28;20110;-64
2023/03/13 08:41:39;;;;;;;2.17;1.10;;;;;;;12.26;100.00;93253.13;5030552;28;20072;-64
2023/03/13 08:44:07;;;;;;;2.50;1.00;;;;;;;12.10;100.00;93246.53;5024910;28;20458;-64
2023/03/13 08:46:35;;;;;;;2.65;1.20;;;;;;;12.25;100.00;93241.34;5011738;28;20549;-65
2023/03/13 08:49:04;;;;;;;3.45;1.50;;;;;;;12.53;100.00;93245.13;5026330;28;20064;-64
2023/03/13 08:51:31;;;;;;;2.60;1.10;;;;;;;13.30;100.00;93241.31;5030303;28;20048;-65
2023/03/13 08:53:57;;;;;;;2.58;1.38;;;;;;;14.11;96.39;93233.91;5029980;28;20498;-64
2023/03/13 08:56:29;;;;;;;3.05;1.35;;;;;;;15.67;85.59;93228.91;5029162;28;20037;-64
2023/03/13 08:58:58;;;;;;;2.33;1.10;;;;;;;15.36;85.47;93247.25;5028355;28;20049;-65
2023/03/13 09:01:30;;;;;;;3.80;1.25;;;;;;;17.44;73.49;93239.28;5030209;28;20286;-65
2023/03/13 09:03:59;;;;;;;2.70;1.33;;;;;;;17.77;67.92;93252.25;5029808;28;20410;-65
2023/03/13 09:06:29;;;;;;;3.17;1.50;;;;;;;17.96;65.19;93236.19;5030369;28;20103;-66
2023/03/13 09:08:57;;;;;;;3.80;1.23;;;;;;;17.45;67.28;93238.06;5029435;28;20056;-65
2023/03/13 09:11:24;;;;;;;3.13;1.00;;;;;;;16.68;69.16;93231.25;5028767;28;20051;-64
2023/03/13 09:13:51;;;;;;;2.65;1.25;;;;;;;15.05;77.84;93224.56;5029922;28;20053;-65
2023/03/13 09:16:20;;;;;;;3.50;1.23;;;;;;;15.06;82.20;93223.34;5042303;28;20398;-62
2023/03/13 09:18:48;;;;;;;2.72;1.20;;;;;;;15.04;79.63;93220.28;5029047;28;20083;-64
2023/03/13 09:21:29;;;;;;;2.33;1.30;;;;;;;14.67;82.38;93221.03;5028512;28;20068;-64
2023/03/13 09:23:56;;;;;;;3.03;1.30;;;;;;;14.08;87.26;93231.28;5029425;28;20059;-65
2023/03/13 09:26:24;;;;;;;2.58;1.33;;;;;;;13.99;87.73;93227.28;5029483;28;20042;-65
2023/03/13 09:28:52;;;;;;;3.73;1.30;;;;;;;14.30;87.46;93214.66;5027748;28;20450;-65
2023/03/13 09:31:22;;;;;;;3.50;1.25;;;;;;;13.99;88.33;93221.78;5030816;28;20095;-65
2023/03/13 09:33:49;;;;;;;2.67;1.20;;;;;;;13.85;89.38;93216.06;5039856;28;20049;-64
2023/03/13 09:36:17;;;;;;;2.50;1.33;;;;;;;13.89;89.40;93211.94;5029237;28;20398;-64
2023/03/13 09:38:47;;;;;;;4.15;1.67;;;;;;;13.86;90.36;93210.06;5028985;28;20053;-64
2023/03/13 09:41:16;;;;;;;3.30;1.60;;;;;;;14.47;86.44;93206.88;5029353;28;20114;-64
2023/03/13 09:44:08;;;;;;;4.20;1.48;;;;;;;14.43;86.55;93206.22;5025911;28;20066;-62
2023/03/13 09:46:52;;;;;;;4.10;1.50;;;;;;;14.05;88.15;93212.91;5009751;28;20406;-65
2023/03/13 09:49:34;;;;;;;3.55;1.60;;;;;;;14.55;85.08;93197.06;5026656;28;21965;-64
2023/03/13 09:52:12;;;;;;;3.88;1.45;;;;;;;14.44;84.34;93197.50;5028792;28;20034;-65
2023/03/13 09:54:45;;;;;;;4.07;1.30;;;;;;;14.34;86.67;93187.66;5029247;28;20053;-65
2023/03/13 09:57:21;;;;;;;3.33;1.20;;;;;;;14.13;87.63;93186.56;5028127;28;20523;-64
2023/03/13 09:59:59;;;;;;;3.35;1.40;;;;;;;13.99;89.63;93187.91;5028435;28;20049;-64
2023/03/13 10:02:35;;;;;;;7.68;1.40;;;;;;;14.45;88.61;93179.72;5029197;28;20037;-64
2023/03/13 10:05:14;;;;;;;5.18;1.95;;;;;;;14.51;85.65;93177.13;5028555;28;20460;-64
2023/03/13 10:07:41;;;;;;;3.33;1.73;;;;;;;14.51;86.37;93179.88;5027594;28;20483;-65
2023/03/13 10:10:53;;;;;;;5.57;1.80;;;;;;;14.64;84.15;93172.22;5026606;28;20056;-65
2023/03/13 10:13:29;;;;;;;3.60;2.00;;;;;;;14.55;84.52;93161.16;5017656;28;20802;-64
2023/03/13 10:16:00;;;;;;;3.15;1.70;;;;;;;15.12;82.01;93164.22;5041642;28;20047;-64
2023/03/13 10:18:27;;;;;;;3.40;1.60;;;;;;;15.37;80.32;93160.34;5028828;28;20389;-65
2023/03/13 10:21:00;;;;;;;3.90;1.57;;;;;;;16.50;71.56;93160.13;5027233;28;20054;-64
2023/03/13 10:24:05;;;;;;;3.40;1.70;;;;;;;16.94;68.22;93156.72;5015688;28;20364;-64
2023/03/13 10:26:35;;;;;;;3.45;1.80;;;;;;;17.09;66.64;93153.22;5026591;28;20429;-65
2023/03/13 10:29:21;;;;;;;4.53;1.70;;;;;;;17.78;63.48;93129.63;5028222;28;20095;-64
2023/03/13 10:31:59;;;;;;;3.83;1.58;;;;;;;19.58;60.54;93137.84;5014073;28;20041;-65
2023/03/13 10:34:29;;;;;;;4.67;1.70;;;;;;;22.16;49.14;93136.59;5028509;28;20076;-65
2023/03/13 10:36:58;;;;;;;5.13;1.60;;;;;;;20.82;49.34;93119.91;5028217;28;20041;-64
2023/03/13 10:39:28;;;;;;;4.18;1.80;;;;;;;20.85;48.04;93102.19;5028609;28;20049;-64
2023/03/13 10:42:09;;;;;;;2.97;1.58;;;;;;;21.59;47.89;93119.06;5015759;28;20401;-64
2023/03/13 10:44:36;;;;;;;4.03;1.77;;;;;;;21.81;47.00;93119.09;5020100;28;20096;-64
2023/03/13 10:47:03;;;;;;;4.20;1.70;;;;;;;22.16;44.64;93101.00;5008847;28;20058;-68
2023/03/13 10:49:32;;;;;;;4.40;1.70;;;;;;;19.76;50.05;93112.50;5028515;28;20049;-64
2023/03/13 10:52:02;;;;;;;3.67;1.95;;;;;;;19.88;49.89;93114.09;5027917;28;20052;-65
2023/03/13 10:54:34;;;;;;;4.15;1.75;;;;;;;22.77;43.54;93090.19;5028622;28;20060;-65
2023/03/13 10:57:19;;;;;;;3.70;1.60;;;;;;;22.97;43.08;93075.81;5028303;28;20050;-66
2023/03/13 10:59:48;;;;;;;2.97;1.50;;;;;;;24.60;40.28;93062.53;5021389;28;20051;-65
2023/03/13 11:02:31;;;;;;;3.42;1.58;;;;;;;22.90;41.47;93057.56;5030911;28;20042;-65
2023/03/13 11:04:58;;;;;;;9.15;1.90;;;;;;;22.71;43.17;93065.78;5032242;28;20041;-65
2023/03/13 11:07:34;;;;;;;3.83;1.90;;;;;;;24.66;39.33;93054.81;5032408;28;20042;-64
2023/03/13 11:10:17;;;;;;;4.18;1.50;;;;;;;25.08;37.11;93040.50;5030620;28;20109;-65
2023/03/13 11:12:46;;;;;;;3.37;1.60;;;;;;;23.33;40.73;93040.25;5032108;28;20049;-62
2023/03/13 11:15:24;;;;;;;3.63;1.67;;;;;;;21.46;44.38;93042.19;5032170;28;20103;-64
2023/03/13 11:18:11;;;;;;;3.38;1.50;;;;;;;23.17;41.37;93029.19;5031608;28;20032;-65
2023/03/13 11:20:42;;;;;;;3.00;1.50;;;;;;;22.70;41.88;93021.56;5032213;28;20045;-64
2023/03/13 11:23:24;;;;;;;4.07;1.75;;;;;;;22.30;42.94;93030.13;5031199;28;20364;-64
2023/03/13 11:26:22;;;;;;;5.87;1.40;;;;;;;22.50;42.74;93017.09;5031794;28;20051;-64
2023/03/13 11:29:14;;;;;;;4.75;1.80;;;;;;;21.40;45.62;93024.66;5031240;28;20122;-64
2023/03/13 11:31:50;;;;;;;4.38;1.50;;;;;;;21.02;45.55;93015.00;5020888;28;20046;-63
2023/03/13 11:34:26;;;;;;;4.50;1.60;;;;;;;21.08;45.91;93024.88;5044049;28;20045;-63
2023/03/13 11:37:00;;;;;;;4.38;1.40;;;;;;;21.06;45.41;93018.28;5031459;28;20045;-64
2023/03/13 11:39:42;;;;;;;13.60;2.00;;;;;;;21.49;44.90;93009.69;5031517;28;20136;-64
2023/03/13 11:42:36;;;;;;;6.00;1.60;;;;;;;20.99;46.09;93016.00;5030899;28;21565;-64
2023/03/13 11:45:44;;;;;;;4.75;1.40;;;;;;;22.37;43.62;93000.84;5031455;28;20099;-63